sensor_id;sensor_type;location;lat;lon;timestamp;temperature;humidity
13665;DHT22;6905;50.770;6.730;2022-09-16T10:55:28;18.70;99.90
13665;DHT22;6905;50.770;6.730;2022-09-16T11:04:39;19.20;99.90
13665;DHT22;6905;50.770;6.730;2022-09-16T11:07:36;19.50;99.90
13665;DHT22;6905;50.770;6.730;2022-09-16T11:13:45;20.10;99.90
13665;DHT22;6905;50.770;6.730;2022-09-16T11:16:30;20.20;99.90
13665;DHT22;6905;50.770;6.730;2022-09-16T11:21:55;20.10;99.90
13665;DHT22;6905;50.770;6.730;2022-09-16T11:22:36;19.90;99.90
13665;DHT22;6905;50.770;6.730;2022-09-16T11:31:33;19.40;99.90
13665;DHT22;6905;50.770;6.730;2022-09-16T11:34:10;19.50;99.90
13665;DHT22;6905;50.770;6.730;2022-09-16T11:36:48;19.70;99.90
13665;DHT22;6905;50.770;6.730;2022-09-16T16:42:15;13.30;99.90
13665;DHT22;6905;50.770;6.730;2022-09-16T16:44:42;13.20;99.90
13665;DHT22;6905;50.770;6.730;2022-09-16T16:47:10;13.20;99.90
13665;DHT22;6905;50.770;6.730;2022-09-16T16:49:54;13.10;99.90
13665;DHT22;6905;50.770;6.730;2022-09-16T16:52:26;13.00;99.90
13665;DHT22;6905;50.770;6.730;2022-09-16T16:58:07;12.90;99.90
13665;DHT22;6905;50.770;6.730;2022-09-16T17:00:35;12.90;99.90
13665;DHT22;6905;50.770;6.730;2022-09-16T17:03:04;12.80;99.90
13665;DHT22;6905;50.770;6.730;2022-09-16T17:05:38;12.80;99.90
13665;DHT22;6905;50.770;6.730;2022-09-16T17:08:21;12.80;99.90
13665;DHT22;6905;50.770;6.730;2022-09-16T17:10:56;12.70;99.90
13665;DHT22;6905;50.770;6.730;2022-09-16T17:13:34;12.70;99.90
13665;DHT22;6905;50.770;6.730;2022-09-16T17:16:07;12.60;99.90
13665;DHT22;6905;50.770;6.730;2022-09-16T17:18:44;12.60;99.90
13665;DHT22;6905;50.770;6.730;2022-09-16T17:21:27;12.50;99.90
13665;DHT22;6905;50.770;6.730;2022-09-16T17:23:57;12.50;99.90
13665;DHT22;6905;50.770;6.730;2022-09-16T17:29:43;12.40;99.90
13665;DHT22;6905;50.770;6.730;2022-09-16T17:32:10;12.30;99.90
13665;DHT22;6905;50.770;6.730;2022-09-16T17:34:48;12.30;99.90
13665;DHT22;6905;50.770;6.730;2022-09-16T17:37:17;12.30;99.90
13665;DHT22;6905;50.770;6.730;2022-09-16T17:39:56;12.20;99.90
13665;DHT22;6905;50.770;6.730;2022-09-16T17:42:42;12.20;99.90
13665;DHT22;6905;50.770;6.730;2022-09-16T17:45:21;12.10;99.90
13665;DHT22;6905;50.770;6.730;2022-09-16T17:48:04;12.10;99.90
13665;DHT22;6905;50.770;6.730;2022-09-16T17:50:48;12.00;99.90
13665;DHT22;6905;50.770;6.730;2022-09-16T17:53:33;12.00;99.90
13665;DHT22;6905;50.770;6.730;2022-09-16T17:59:11;11.80;99.90
13665;DHT22;6905;50.770;6.730;2022-09-16T18:05:15;11.80;99.90
13665;DHT22;6905;50.770;6.730;2022-09-16T18:08:00;11.70;99.90
13665;DHT22;6905;50.770;6.730;2022-09-16T18:10:50;11.70;99.90
13665;DHT22;6905;50.770;6.730;2022-09-16T18:13:37;11.70;99.90
13665;DHT22;6905;50.770;6.730;2022-09-16T18:16:20;11.70;99.90
13665;DHT22;6905;50.770;6.730;2022-09-16T18:19:04;11.70;99.90
13665;DHT22;6905;50.770;6.730;2022-09-16T18:27:49;11.60;99.90
13665;DHT22;6905;50.770;6.730;2022-09-16T18:30:35;11.60;99.90
13665;DHT22;6905;50.770;6.730;2022-09-16T18:33:30;11.60;99.90
13665;DHT22;6905;50.770;6.730;2022-09-16T18:36:12;11.50;99.90
13665;DHT22;6905;50.770;6.730;2022-09-16T18:38:56;11.60;99.90
13665;DHT22;6905;50.770;6.730;2022-09-16T18:41:44;11.50;99.90
13665;DHT22;6905;50.770;6.730;2022-09-16T18:44:32;11.50;99.90
13665;DHT22;6905;50.770;6.730;2022-09-16T18:47:31;11.40;99.90
13665;DHT22;6905;50.770;6.730;2022-09-16T18:50:19;11.40;99.90
13665;DHT22;6905;50.770;6.730;2022-09-16T18:56:09;11.40;99.90
13665;DHT22;6905;50.770;6.730;2022-09-16T18:59:02;11.30;99.90
13665;DHT22;6905;50.770;6.730;2022-09-16T19:16:57;11.30;99.90
13665;DHT22;6905;50.770;6.730;2022-09-16T19:20:04;11.20;99.90
13665;DHT22;6905;50.770;6.730;2022-09-16T19:23:07;11.20;99.90
13665;DHT22;6905;50.770;6.730;2022-09-16T19:26:01;11.20;99.90
13665;DHT22;6905;50.770;6.730;2022-09-16T19:28:49;11.20;99.90
13665;DHT22;6905;50.770;6.730;2022-09-16T19:31:34;11.10;99.90
13665;DHT22;6905;50.770;6.730;2022-09-16T19:34:27;11.10;99.90
13665;DHT22;6905;50.770;6.730;2022-09-16T19:37:09;11.10;99.90
13665;DHT22;6905;50.770;6.730;2022-09-16T19:39:42;11.10;99.90
13665;DHT22;6905;50.770;6.730;2022-09-16T19:42:28;11.00;99.90
13665;DHT22;6905;50.770;6.730;2022-09-16T19:45:15;11.00;99.90
13665;DHT22;6905;50.770;6.730;2022-09-16T19:47:59;11.00;99.90
13665;DHT22;6905;50.770;6.730;2022-09-16T19:59:48;11.00;99.90
13665;DHT22;6905;50.770;6.730;2022-09-16T20:02:43;10.90;99.90
13665;DHT22;6905;50.770;6.730;2022-09-16T20:05:27;10.90;99.90
13665;DHT22;6905;50.770;6.730;2022-09-16T20:08:10;10.90;99.90
13665;DHT22;6905;50.770;6.730;2022-09-16T20:10:57;10.80;99.90
13665;DHT22;6905;50.770;6.730;2022-09-16T20:13:59;10.80;99.90
13665;DHT22;6905;50.770;6.730;2022-09-16T20:19:38;10.80;99.90
13665;DHT22;6905;50.770;6.730;2022-09-16T20:22:26;10.80;99.90
13665;DHT22;6905;50.770;6.730;2022-09-16T20:25:08;10.80;99.90
13665;DHT22;6905;50.770;6.730;2022-09-16T20:27:38;10.80;99.90
13665;DHT22;6905;50.770;6.730;2022-09-16T20:30:24;10.70;99.90
13665;DHT22;6905;50.770;6.730;2022-09-16T20:36:23;10.70;99.90
13665;DHT22;6905;50.770;6.730;2022-09-16T20:39:06;10.70;99.90
13665;DHT22;6905;50.770;6.730;2022-09-16T20:41:48;10.70;99.90
13665;DHT22;6905;50.770;6.730;2022-09-16T20:44:31;10.70;99.90
13665;DHT22;6905;50.770;6.730;2022-09-16T20:47:14;10.70;99.90
13665;DHT22;6905;50.770;6.730;2022-09-16T20:50:03;10.60;99.90
13665;DHT22;6905;50.770;6.730;2022-09-16T20:59:06;10.60;99.90
13665;DHT22;6905;50.770;6.730;2022-09-16T21:04:49;10.60;99.90
13665;DHT22;6905;50.770;6.730;2022-09-16T21:07:32;10.60;99.90
13665;DHT22;6905;50.770;6.730;2022-09-16T21:10:15;10.60;99.90
13665;DHT22;6905;50.770;6.730;2022-09-16T21:13:32;10.60;99.90
13665;DHT22;6905;50.770;6.730;2022-09-16T21:19:23;10.60;99.90
13665;DHT22;6905;50.770;6.730;2022-09-16T21:25:26;10.60;99.90
13665;DHT22;6905;50.770;6.730;2022-09-16T21:28:15;10.60;99.90
13665;DHT22;6905;50.770;6.730;2022-09-16T21:31:03;10.60;99.90
13665;DHT22;6905;50.770;6.730;2022-09-16T21:39:52;10.60;99.90
13665;DHT22;6905;50.770;6.730;2022-09-16T21:43:11;10.50;99.90
13665;DHT22;6905;50.770;6.730;2022-09-16T21:51:46;10.50;99.90
13665;DHT22;6905;50.770;6.730;2022-09-16T21:54:29;10.50;99.90
13665;DHT22;6905;50.770;6.730;2022-09-16T21:57:25;10.40;99.90
13665;DHT22;6905;50.770;6.730;2022-09-16T22:00:22;10.40;99.90
13665;DHT22;6905;50.770;6.730;2022-09-16T22:03:15;10.40;99.90
13665;DHT22;6905;50.770;6.730;2022-09-16T22:06:15;10.40;99.90
13665;DHT22;6905;50.770;6.730;2022-09-16T22:09:06;10.30;99.90
13665;DHT22;6905;50.770;6.730;2022-09-16T22:11:48;10.30;99.90
13665;DHT22;6905;50.770;6.730;2022-09-16T22:14:36;10.30;99.90
13665;DHT22;6905;50.770;6.730;2022-09-16T22:17:26;10.30;99.90
13665;DHT22;6905;50.770;6.730;2022-09-16T22:20:09;10.30;99.90
13665;DHT22;6905;50.770;6.730;2022-09-16T22:23:03;10.30;99.90
13665;DHT22;6905;50.770;6.730;2022-09-16T22:26:08;10.30;99.90
13665;DHT22;6905;50.770;6.730;2022-09-16T22:28:52;10.30;99.90
13665;DHT22;6905;50.770;6.730;2022-09-16T22:43:45;10.30;99.90
13665;DHT22;6905;50.770;6.730;2022-09-16T22:49:30;10.20;99.90
13665;DHT22;6905;50.770;6.730;2022-09-16T22:55:13;10.20;99.90
13665;DHT22;6905;50.770;6.730;2022-09-16T23:10:06;10.20;99.90
13665;DHT22;6905;50.770;6.730;2022-09-16T23:13:08;10.20;99.90
13665;DHT22;6905;50.770;6.730;2022-09-16T23:15:58;10.20;99.90
13665;DHT22;6905;50.770;6.730;2022-09-16T23:18:53;10.20;99.90
13665;DHT22;6905;50.770;6.730;2022-09-16T23:24:47;10.30;99.90
13665;DHT22;6905;50.770;6.730;2022-09-16T23:39:44;10.10;99.90
13665;DHT22;6905;50.770;6.730;2022-09-16T23:42:38;10.10;99.90
13665;DHT22;6905;50.770;6.730;2022-09-16T23:45:24;10.20;99.90
13665;DHT22;6905;50.770;6.730;2022-09-16T23:48:20;10.10;99.90
13665;DHT22;6905;50.770;6.730;2022-09-16T23:51:23;10.10;99.90
13665;DHT22;6905;50.770;6.730;2022-09-16T23:54:15;10.10;99.90
